createdAt,value
2023-05-16T00:00:40.586Z,14.16
2023-05-16T00:03:29.154Z,14.22
2023-05-16T00:06:17.655Z,14.31
2023-05-16T00:09:05.587Z,14.37
2023-05-16T00:11:53.569Z,14.37
2023-05-16T00:14:42.889Z,14.30
2023-05-16T00:17:30.934Z,14.17
2023-05-16T00:20:23.208Z,13.92
2023-05-16T00:23:11.298Z,14.40
2023-05-16T00:25:59.374Z,14.28
2023-05-16T00:28:47.251Z,14.36
2023-05-16T00:31:36.711Z,14.53
2023-05-16T00:34:24.813Z,14.05
2023-05-16T00:37:12.804Z,13.84
2023-05-16T00:40:00.776Z,13.84
2023-05-16T00:42:49.146Z,13.94
2023-05-16T00:45:37.143Z,14.13
2023-05-16T00:48:26.844Z,14.55
2023-05-16T00:51:14.976Z,13.97
2023-05-16T00:54:04.175Z,14.34
2023-05-16T00:56:52.127Z,13.79
2023-05-16T00:59:40.236Z,13.83
2023-05-16T01:02:30.100Z,13.97
2023-05-16T01:05:19.878Z,13.66
2023-05-16T01:08:07.839Z,13.50
2023-05-16T01:11:03.457Z,13.81
2023-05-16T01:14:01.890Z,13.76
2023-05-16T01:16:56.162Z,14.02
2023-05-16T01:20:05.083Z,13.58
2023-05-16T01:23:18.575Z,14.02
2023-05-16T01:26:22.493Z,13.83
2023-05-16T01:29:10.924Z,13.88
2023-05-16T01:31:59.307Z,14.07
2023-05-16T01:34:47.399Z,13.84
2023-05-16T01:37:40.890Z,14.35
2023-05-16T01:40:36.613Z,13.80
2023-05-16T01:43:32.397Z,13.96
2023-05-16T01:46:26.587Z,13.91
2023-05-16T01:49:21.369Z,13.76
2023-05-16T01:52:12.930Z,14.02
2023-05-16T01:55:01.831Z,14.06
2023-05-16T01:57:51.265Z,13.66
2023-05-16T02:00:41.318Z,13.85
2023-05-16T02:03:29.362Z,13.84
2023-05-16T02:06:17.240Z,13.40
2023-05-16T02:09:05.318Z,13.32
2023-05-16T02:11:53.265Z,13.31
2023-05-16T02:14:41.259Z,13.95
2023-05-16T02:17:30.549Z,14.06
2023-05-16T02:20:18.596Z,13.61
2023-05-16T02:23:06.631Z,13.35
2023-05-16T02:25:54.616Z,13.63
2023-05-16T02:28:42.538Z,13.17
2023-05-16T02:31:31.724Z,13.15
2023-05-16T02:34:21.404Z,13.29
2023-05-16T02:37:10.743Z,13.14
2023-05-16T02:40:00.557Z,13.09
2023-05-16T02:42:48.590Z,13.05
2023-05-16T02:45:36.655Z,13.18
2023-05-16T02:48:24.630Z,13.38
2023-05-16T02:51:13.969Z,13.73
2023-05-16T02:54:01.903Z,13.17
2023-05-16T02:56:49.983Z,13.55
2023-05-16T02:59:40.740Z,13.69
2023-05-16T03:02:29.019Z,13.84
2023-05-16T03:05:17.247Z,13.88
2023-05-16T03:08:06.892Z,13.87
2023-05-16T03:10:54.830Z,13.79
2023-05-16T03:13:42.823Z,13.95
2023-05-16T03:16:30.819Z,13.93
2023-05-16T03:19:18.780Z,13.44
2023-05-16T03:22:06.878Z,12.95
2023-05-16T03:24:56.502Z,13.41
2023-05-16T03:27:44.446Z,13.89
2023-05-16T03:30:32.403Z,13.50
2023-05-16T03:33:20.522Z,13.44
2023-05-16T03:36:09.236Z,13.07
2023-05-16T03:38:57.152Z,12.93
2023-05-16T03:41:46.533Z,13.07
2023-05-16T03:44:34.431Z,12.71
2023-05-16T03:47:22.417Z,13.00
2023-05-16T03:50:11.015Z,13.13
2023-05-16T03:52:59.056Z,13.36
2023-05-16T03:55:48.635Z,12.94
2023-05-16T03:58:38.169Z,13.04
2023-05-16T04:01:26.179Z,13.10
2023-05-16T04:04:14.347Z,13.18
2023-05-16T04:07:02.669Z,13.30
2023-05-16T04:09:50.613Z,13.29
2023-05-16T04:12:38.641Z,13.02
2023-05-16T04:15:28.442Z,12.89
2023-05-16T04:18:16.731Z,12.68
2023-05-16T04:21:05.248Z,13.03
2023-05-16T04:23:53.377Z,13.10
2023-05-16T04:26:41.299Z,12.87
2023-05-16T04:29:29.276Z,12.90
2023-05-16T04:32:18.712Z,13.01
2023-05-16T04:35:09.216Z,12.98
2023-05-16T04:37:57.216Z,12.85
2023-05-16T04:40:45.694Z,13.40
2023-05-16T04:43:33.597Z,13.41
2023-05-16T04:46:22.114Z,13.36
2023-05-16T04:49:12.247Z,13.41
2023-05-16T04:52:00.255Z,13.97
2023-05-16T04:54:48.145Z,14.01
2023-05-16T04:57:36.088Z,13.93
2023-05-16T05:00:24.426Z,13.71
2023-05-16T05:03:12.575Z,13.94
2023-05-16T05:06:02.080Z,13.86
2023-05-16T05:08:50.450Z,13.89
2023-05-16T05:11:38.372Z,13.91
2023-05-16T05:14:26.338Z,13.87
2023-05-16T05:17:14.342Z,13.49
2023-05-16T05:20:03.284Z,13.66
2023-05-16T05:22:52.771Z,13.47
2023-05-16T05:25:41.117Z,13.31
2023-05-16T05:28:29.088Z,13.68
2023-05-16T05:31:17.095Z,13.72
2023-05-16T05:34:05.092Z,13.68
2023-05-16T05:36:52.975Z,14.31
2023-05-16T05:39:42.335Z,14.19
2023-05-16T05:42:31.540Z,13.96
2023-05-16T05:45:19.639Z,13.94
2023-05-16T05:48:08.257Z,14.07
2023-05-16T05:50:56.332Z,14.08
2023-05-16T05:53:44.642Z,14.51
2023-05-16T05:56:34.361Z,14.33
2023-05-16T05:59:22.311Z,14.74
2023-05-16T06:02:10.552Z,14.60
2023-05-16T06:04:58.567Z,14.41
2023-05-16T06:07:46.550Z,14.41
2023-05-16T06:10:34.469Z,14.53
2023-05-16T06:13:23.848Z,14.61
2023-05-16T06:16:11.801Z,14.76
2023-05-16T06:18:59.754Z,14.67
2023-05-16T06:21:47.735Z,14.40
2023-05-16T06:24:35.968Z,14.31
2023-05-16T06:27:23.932Z,14.53
2023-05-16T06:30:13.843Z,14.84
2023-05-16T06:33:01.891Z,14.76
2023-05-16T06:35:49.943Z,14.56
2023-05-16T06:38:37.993Z,14.59
2023-05-16T06:41:26.479Z,14.74
2023-05-16T06:44:14.703Z,14.78
2023-05-16T06:47:04.191Z,14.51
2023-05-16T06:49:52.239Z,14.73
2023-05-16T06:52:42.567Z,15.06
2023-05-16T06:55:33.437Z,15.18
2023-05-16T06:58:21.787Z,15.10
2023-05-16T07:01:09.813Z,15.39
2023-05-16T07:03:59.361Z,15.30
2023-05-16T07:06:47.536Z,14.82
2023-05-16T07:09:35.684Z,15.26
2023-05-16T07:12:23.668Z,15.20
2023-05-16T07:15:13.283Z,15.18
2023-05-16T07:18:01.406Z,15.26
2023-05-16T07:20:51.130Z,15.32
2023-05-16T07:23:39.175Z,15.43
2023-05-16T07:26:27.170Z,15.54
2023-05-16T07:29:15.668Z,15.36
2023-05-16T07:32:03.719Z,15.27
2023-05-16T07:34:51.808Z,15.34
2023-05-16T07:37:42.606Z,15.57
2023-05-16T07:40:30.620Z,15.77
2023-05-16T07:43:18.621Z,15.81
2023-05-16T07:46:07.008Z,15.92
2023-05-16T07:48:55.097Z,15.87
2023-05-16T07:51:43.097Z,15.94
2023-05-16T07:54:33.353Z,15.73
2023-05-16T07:57:22.745Z,15.81
2023-05-16T08:00:13.691Z,15.86
2023-05-16T08:03:01.852Z,15.92
2023-05-16T08:05:50.270Z,15.94
2023-05-16T08:08:38.490Z,16.10
2023-05-16T08:11:27.981Z,16.16
2023-05-16T08:14:15.975Z,16.11
2023-05-16T08:17:04.030Z,16.21
2023-05-16T08:19:51.988Z,16.17
2023-05-16T08:22:40.200Z,16.20
2023-05-16T08:25:28.520Z,15.69
2023-05-16T08:28:18.135Z,16.23
2023-05-16T08:31:06.200Z,16.22
2023-05-16T08:33:54.231Z,16.37
2023-05-16T08:36:42.232Z,16.43
2023-05-16T08:39:30.761Z,16.59
2023-05-16T08:42:18.764Z,16.42
2023-05-16T08:45:09.435Z,16.58
2023-05-16T08:47:57.694Z,16.71
2023-05-16T08:50:45.737Z,16.47
2023-05-16T08:53:41.268Z,16.99
2023-05-16T08:56:29.504Z,17.09
2023-05-16T08:59:17.784Z,17.18
2023-05-16T09:02:07.861Z,17.17
2023-05-16T09:04:58.581Z,17.16
2023-05-16T09:07:47.276Z,17.20
2023-05-16T09:10:35.476Z,17.33
2023-05-16T09:13:23.502Z,17.37
2023-05-16T09:16:13.517Z,17.56
2023-05-16T09:19:04.526Z,17.73
2023-05-16T09:21:52.776Z,17.84
2023-05-16T09:24:41.149Z,17.96
2023-05-16T09:27:32.214Z,18.13
2023-05-16T09:30:23.218Z,18.18
2023-05-16T09:33:11.310Z,18.09
2023-05-16T09:36:02.322Z,18.27
2023-05-16T09:38:52.934Z,18.32
2023-05-16T09:41:41.181Z,18.32
2023-05-16T09:44:29.869Z,18.32
2023-05-16T09:47:18.597Z,18.51
2023-05-16T09:50:07.906Z,18.47
2023-05-16T09:52:58.306Z,18.64
2023-05-16T09:55:46.356Z,18.56
2023-05-16T09:58:36.243Z,18.59
2023-05-16T10:01:25.039Z,18.49
2023-05-16T10:04:16.123Z,18.64
2023-05-16T10:07:05.613Z,18.57
2023-05-16T10:09:57.265Z,18.79
2023-05-16T10:12:46.328Z,18.69
2023-05-16T10:15:35.606Z,18.59
2023-05-16T10:18:26.531Z,18.65
2023-05-16T10:21:17.065Z,18.54
2023-05-16T10:24:08.224Z,18.52
2023-05-16T10:26:57.892Z,18.52
2023-05-16T10:29:54.217Z,18.70
2023-05-16T10:32:43.383Z,18.75
2023-05-16T10:35:32.829Z,18.85
2023-05-16T10:38:22.498Z,19.02
2023-05-16T10:41:11.419Z,19.15
2023-05-16T10:44:02.520Z,19.27
2023-05-16T10:46:50.639Z,19.45
2023-05-16T10:49:42.459Z,19.49
2023-05-16T10:52:35.042Z,19.28
2023-05-16T10:55:23.486Z,19.41
2023-05-16T10:58:11.413Z,19.00
2023-05-16T11:01:21.826Z,19.41
2023-05-16T11:04:12.953Z,19.39
2023-05-16T11:07:02.478Z,19.42
2023-05-16T11:10:08.282Z,19.42
2023-05-16T11:12:58.342Z,19.42
2023-05-16T11:15:46.451Z,19.34
2023-05-16T11:18:35.950Z,19.42
2023-05-16T11:21:24.005Z,19.65
2023-05-16T11:24:31.276Z,19.88
2023-05-16T11:27:24.767Z,19.89
2023-05-16T11:30:15.662Z,19.82
2023-05-16T11:33:04.340Z,19.82
2023-05-16T11:36:15.914Z,19.95
2023-05-16T11:39:09.542Z,19.98
2023-05-16T11:41:57.639Z,20.09
2023-05-16T11:44:46.002Z,19.97
2023-05-16T11:47:34.080Z,19.96
2023-05-16T11:50:24.624Z,20.01
2023-05-16T11:53:14.545Z,20.05
2023-05-16T11:56:03.594Z,20.13
2023-05-16T11:58:51.902Z,20.34
2023-05-16T12:01:41.557Z,20.28
2023-05-16T12:04:29.684Z,20.27
2023-05-16T12:07:17.783Z,20.42
2023-05-16T12:10:09.012Z,20.35
2023-05-16T12:12:57.482Z,20.14
2023-05-16T12:15:45.770Z,20.20
2023-05-16T12:18:33.834Z,20.07
2023-05-16T12:21:23.598Z,20.08
2023-05-16T12:24:13.321Z,20.02
2023-05-16T12:27:02.683Z,20.03
2023-05-16T12:29:51.667Z,20.00
2023-05-16T12:32:39.995Z,19.91
2023-05-16T12:35:32.282Z,20.17
2023-05-16T12:38:21.565Z,20.10
2023-05-16T12:41:10.338Z,20.10
2023-05-16T12:44:13.495Z,20.07
2023-05-16T12:47:01.478Z,20.14
2023-05-16T12:49:51.368Z,20.23
2023-05-16T12:52:39.408Z,20.43
2023-05-16T12:55:27.503Z,20.43
2023-05-16T12:58:16.467Z,20.48
2023-05-16T13:01:06.602Z,20.25
2023-05-16T13:03:54.952Z,20.56
2023-05-16T13:06:57.798Z,20.58
2023-05-16T13:09:47.509Z,20.42
2023-05-16T13:12:35.413Z,20.43
2023-05-16T13:15:23.508Z,20.55
2023-05-16T13:18:12.996Z,20.67
2023-05-16T13:21:01.102Z,20.76
2023-05-16T13:23:49.090Z,20.76
2023-05-16T13:26:37.521Z,20.72
2023-05-16T13:29:25.586Z,20.84
2023-05-16T13:32:13.850Z,20.88
2023-05-16T13:35:04.080Z,20.93
2023-05-16T13:37:53.460Z,20.81
2023-05-16T13:40:44.543Z,20.92
2023-05-16T13:43:32.597Z,20.86
2023-05-16T13:46:20.742Z,20.91
2023-05-16T13:49:08.800Z,20.59
2023-05-16T13:51:58.666Z,20.93
2023-05-16T13:54:46.616Z,21.02
2023-05-16T13:57:34.759Z,20.64
2023-05-16T14:03:13.813Z,21.03
2023-05-16T14:06:02.017Z,21.00
2023-05-16T14:08:51.868Z,21.04
2023-05-16T14:11:40.066Z,20.97
2023-05-16T14:14:28.032Z,21.00
2023-05-16T14:17:16.258Z,20.95
2023-05-16T14:20:06.091Z,20.88
2023-05-16T14:22:54.289Z,20.84
2023-05-16T14:25:43.674Z,21.05
2023-05-16T14:28:32.838Z,20.87
2023-05-16T14:31:21.396Z,21.04
2023-05-16T14:34:09.436Z,21.01
2023-05-16T14:36:57.438Z,20.90
2023-05-16T14:39:46.651Z,21.04
2023-05-16T14:42:36.102Z,20.98
2023-05-16T14:45:24.105Z,21.01
2023-05-16T14:48:12.237Z,20.90
2023-05-16T14:51:00.329Z,20.82
2023-05-16T14:53:48.403Z,20.82
2023-05-16T14:56:36.537Z,20.80
2023-05-16T14:59:26.240Z,20.78
2023-05-16T15:02:14.321Z,20.82
2023-05-16T15:05:02.443Z,20.80
2023-05-16T15:07:51.314Z,20.72
2023-05-16T15:10:39.420Z,20.65
2023-05-16T15:13:27.390Z,20.68
2023-05-16T15:16:16.909Z,20.61
2023-05-16T15:19:05.258Z,20.64
2023-05-16T15:21:53.287Z,20.64
2023-05-16T15:24:41.365Z,20.71
2023-05-16T15:27:29.640Z,20.63
2023-05-16T15:30:17.579Z,20.67
2023-05-16T15:33:07.046Z,20.72
2023-05-16T15:35:55.010Z,20.72
2023-05-16T15:38:45.632Z,20.76
2023-05-16T15:42:00.641Z,20.76
2023-05-16T15:44:42.051Z,20.67
2023-05-16T15:47:30.114Z,20.66
2023-05-16T15:50:19.555Z,20.63
2023-05-16T15:53:07.583Z,20.71
2023-05-16T15:55:56.470Z,20.68
2023-05-16T15:58:46.821Z,20.53
2023-05-16T16:01:34.933Z,20.61
2023-05-16T16:04:23.848Z,20.53
2023-05-16T16:07:13.771Z,20.51
2023-05-16T16:10:01.756Z,20.45
2023-05-16T16:13:00.413Z,20.34
2023-05-16T16:15:48.559Z,20.38
2023-05-16T16:18:36.643Z,20.36
2023-05-16T16:21:24.933Z,20.33
2023-05-16T16:24:15.218Z,20.26
2023-05-16T16:27:03.259Z,20.24
2023-05-16T16:29:51.261Z,20.16
2023-05-16T16:32:39.795Z,20.13
2023-05-16T16:35:28.447Z,20.16
2023-05-16T16:38:17.572Z,20.12
2023-05-16T16:41:06.950Z,20.11
2023-05-16T16:43:54.950Z,20.08
2023-05-16T16:46:43.037Z,20.06
2023-05-16T16:49:31.523Z,20.07
2023-05-16T16:52:19.626Z,19.98
2023-05-16T16:55:08.918Z,19.90
2023-05-16T16:57:58.353Z,19.97
2023-05-16T17:00:46.390Z,19.90
2023-05-16T17:03:34.435Z,19.91
2023-05-16T17:06:22.488Z,19.89
2023-05-16T17:09:13.985Z,19.82
2023-05-16T17:12:07.948Z,19.72
2023-05-16T17:14:57.367Z,19.76
2023-05-16T17:17:46.048Z,19.69
2023-05-16T17:20:34.512Z,19.71
2023-05-16T17:23:22.553Z,19.73
2023-05-16T17:26:10.618Z,19.71
2023-05-16T17:29:00.257Z,19.70
2023-05-16T17:31:49.757Z,19.70
2023-05-16T17:34:37.912Z,19.67
2023-05-16T17:37:26.592Z,19.69
2023-05-16T17:40:17.222Z,19.69
2023-05-16T17:43:05.657Z,19.66
2023-05-16T17:45:53.751Z,19.50
2023-05-16T17:48:43.751Z,19.37
2023-05-16T17:51:46.589Z,19.30
2023-05-16T17:54:34.573Z,19.13
2023-05-16T17:57:22.578Z,19.23
2023-05-16T18:00:11.546Z,19.16
2023-05-16T18:02:59.943Z,19.12
2023-05-16T18:05:49.684Z,19.12
2023-05-16T18:08:37.803Z,19.18
2023-05-16T18:11:26.108Z,19.25
2023-05-16T18:14:15.622Z,19.25
2023-05-16T18:17:03.922Z,19.15
2023-05-16T18:19:52.763Z,19.21
2023-05-16T18:22:43.013Z,19.17
2023-05-16T18:25:31.701Z,19.20
2023-05-16T18:28:19.809Z,19.12
2023-05-16T18:31:08.044Z,19.12
2023-05-16T18:33:56.499Z,19.08
2023-05-16T18:36:44.883Z,19.00
2023-05-16T18:39:34.416Z,18.97
2023-05-16T18:42:22.570Z,19.00
2023-05-16T18:45:11.482Z,18.73
2023-05-16T18:47:59.673Z,18.86
2023-05-16T18:50:48.158Z,18.84
2023-05-16T18:53:36.642Z,18.83
2023-05-16T18:56:26.875Z,18.56
2023-05-16T18:59:15.173Z,18.73
2023-05-16T19:02:04.607Z,18.67
2023-05-16T19:04:53.345Z,18.71
2023-05-16T19:07:41.702Z,18.59
2023-05-16T19:10:30.110Z,18.50
2023-05-16T19:13:19.975Z,18.46
2023-05-16T19:16:08.528Z,18.05
2023-05-16T19:18:58.364Z,18.46
2023-05-16T19:21:47.943Z,18.39
2023-05-16T19:24:36.317Z,18.34
2023-05-16T19:27:24.718Z,18.33
2023-05-16T19:30:14.920Z,18.30
2023-05-16T19:33:03.614Z,18.46
2023-05-16T19:35:53.891Z,18.47
2023-05-16T19:38:42.332Z,18.32
2023-05-16T19:41:31.294Z,18.16
2023-05-16T19:44:19.717Z,18.15
2023-05-16T19:47:09.799Z,18.13
2023-05-16T19:49:58.367Z,17.94
2023-05-16T19:52:46.862Z,17.71
2023-05-16T19:55:38.148Z,17.65
2023-05-16T19:58:26.796Z,17.66
2023-05-16T20:01:15.560Z,17.32
2023-05-16T20:04:05.691Z,17.38
2023-05-16T20:06:54.025Z,17.39
2023-05-16T20:09:42.168Z,17.49
2023-05-16T20:12:30.469Z,17.21
2023-05-16T20:15:19.104Z,16.95
2023-05-16T20:18:07.416Z,16.98
2023-05-16T20:20:58.572Z,16.80
2023-05-16T20:23:46.898Z,16.83
2023-05-16T20:26:34.901Z,16.80
2023-05-16T20:29:22.910Z,16.80
2023-05-16T20:32:10.995Z,16.75
2023-05-16T20:34:59.159Z,16.68
2023-05-16T20:37:48.545Z,16.73
2023-05-16T20:40:36.584Z,16.60
2023-05-16T20:43:26.604Z,16.66
2023-05-16T20:46:14.915Z,16.70
2023-05-16T20:49:02.986Z,16.59
2023-05-16T20:51:51.119Z,16.69
2023-05-16T20:54:41.840Z,16.52
2023-05-16T20:57:29.853Z,16.17
2023-05-16T21:00:18.187Z,16.59
2023-05-16T21:03:06.340Z,16.50
2023-05-16T21:05:54.377Z,16.48
2023-05-16T21:08:42.335Z,16.46
2023-05-16T21:11:32.939Z,16.48
2023-05-16T21:14:20.956Z,16.49
2023-05-16T21:17:08.987Z,16.47
2023-05-16T21:19:57.044Z,16.29
2023-05-16T21:22:45.226Z,16.25
2023-05-16T21:25:33.467Z,16.52
2023-05-16T21:28:22.813Z,16.72
2023-05-16T21:31:10.792Z,16.98
2023-05-16T21:33:58.842Z,16.32
2023-05-16T21:36:46.853Z,16.15
2023-05-16T21:39:34.785Z,15.96
2023-05-16T21:42:22.790Z,16.38
2023-05-16T21:45:16.556Z,16.17
2023-05-16T21:48:04.957Z,16.01
2023-05-16T21:50:53.047Z,16.07
2023-05-16T21:53:40.996Z,16.12
2023-05-16T21:56:29.237Z,15.83
2023-05-16T21:59:17.264Z,15.79
2023-05-16T22:02:07.869Z,15.49
2023-05-16T22:04:55.991Z,15.69
2023-05-16T22:07:44.424Z,15.89
2023-05-16T22:10:32.518Z,15.85
2023-05-16T22:13:20.702Z,15.79
2023-05-16T22:16:08.746Z,15.63
2023-05-16T22:18:58.267Z,15.74
2023-05-16T22:21:46.244Z,15.74
2023-05-16T22:24:34.360Z,15.86
2023-05-16T22:27:22.436Z,15.72
2023-05-16T22:30:10.862Z,15.30
2023-05-16T22:32:58.954Z,15.19
2023-05-16T22:35:48.483Z,15.81
2023-05-16T22:38:36.484Z,15.92
2023-05-16T22:41:24.504Z,15.70
2023-05-16T22:44:12.503Z,16.12
2023-05-16T22:47:00.614Z,16.15
2023-05-16T22:49:48.627Z,15.39
2023-05-16T22:52:41.197Z,15.69
2023-05-16T22:55:29.542Z,15.70
2023-05-16T22:58:17.921Z,15.13
2023-05-16T23:01:06.019Z,15.36
2023-05-16T23:03:54.041Z,15.31
2023-05-16T23:06:42.094Z,15.33
2023-05-16T23:09:31.497Z,15.43
2023-05-16T23:12:21.262Z,15.12
2023-05-16T23:15:10.509Z,15.04
2023-05-16T23:17:58.657Z,15.07
2023-05-16T23:20:46.982Z,14.64
2023-05-16T23:23:35.145Z,14.73
2023-05-16T23:26:24.617Z,14.97
2023-05-16T23:29:12.629Z,15.22
2023-05-16T23:32:00.591Z,15.47
2023-05-16T23:34:48.609Z,14.89
2023-05-16T23:37:36.855Z,14.71
2023-05-16T23:40:24.817Z,14.75
2023-05-16T23:43:14.240Z,14.77
2023-05-16T23:46:02.254Z,14.71
2023-05-16T23:48:50.498Z,14.72
2023-05-16T23:51:52.791Z,14.69
2023-05-16T23:54:45.485Z,14.53
2023-05-16T23:57:33.463Z,14.45
